createdAt,value
2023-04-05T00:00:55.336Z,5.07
2023-04-05T00:03:24.214Z,6.23
2023-04-05T00:05:54.705Z,10.70
2023-04-05T00:08:26.776Z,8.77
2023-04-05T00:10:54.644Z,5.47
2023-04-05T00:13:22.895Z,4.37
2023-04-05T00:15:51.057Z,8.87
2023-04-05T00:18:23.714Z,12.07
2023-04-05T00:20:53.524Z,10.83
2023-04-05T00:23:22.676Z,6.33
2023-04-05T00:25:50.456Z,5.83
2023-04-05T00:28:18.199Z,8.50
2023-04-05T00:30:45.975Z,10.63
2023-04-05T00:33:14.367Z,4.00
2023-04-05T00:35:42.098Z,6.57
2023-04-05T00:38:11.260Z,3.90
2023-04-05T00:40:39.266Z,8.03
2023-04-05T00:43:07.499Z,4.90
2023-04-05T00:45:35.404Z,5.90
2023-04-05T00:48:03.214Z,8.73
2023-04-05T00:50:31.530Z,7.17
2023-04-05T00:52:59.334Z,3.23
2023-04-05T00:55:28.682Z,5.47
2023-04-05T00:57:56.818Z,5.47
2023-04-05T01:00:26.311Z,4.67
2023-04-05T01:03:01.747Z,4.53
2023-04-05T01:05:37.523Z,5.60
2023-04-05T01:08:13.089Z,4.57
2023-04-05T01:10:47.613Z,7.23
2023-04-05T01:13:17.397Z,5.10
2023-04-05T01:15:45.165Z,3.87
2023-04-05T01:18:13.993Z,4.63
2023-04-05T01:20:53.652Z,4.37
2023-04-05T01:23:38.850Z,3.90
2023-04-05T01:26:42.298Z,5.33
2023-04-05T01:29:39.876Z,3.60
2023-04-05T01:32:16.096Z,4.57
2023-04-05T01:34:51.292Z,6.43
2023-04-05T01:37:21.760Z,4.37
2023-04-05T01:39:50.634Z,3.53
2023-04-05T01:42:25.045Z,4.03
2023-04-05T01:44:55.451Z,4.17
2023-04-05T01:47:23.347Z,3.43
2023-04-05T01:49:51.301Z,4.50
2023-04-05T01:52:19.027Z,4.23
2023-04-05T01:54:46.714Z,6.43
2023-04-05T01:57:14.427Z,6.97
2023-04-05T01:59:42.227Z,7.40
2023-04-05T02:02:11.624Z,9.63
2023-04-05T02:04:39.335Z,7.83
2023-04-05T02:07:07.034Z,7.07
2023-04-05T02:09:34.708Z,7.27
2023-04-05T02:12:02.487Z,6.83
2023-04-05T02:14:30.339Z,6.80
2023-04-05T02:16:58.502Z,5.40
2023-04-05T02:19:29.840Z,6.17
2023-04-05T02:21:57.521Z,6.17
2023-04-05T02:24:25.334Z,6.63
2023-04-05T02:26:53.082Z,8.07
2023-04-05T02:29:20.801Z,5.93
2023-04-05T02:31:48.688Z,6.50
2023-04-05T02:34:16.539Z,6.37
2023-04-05T02:36:45.698Z,5.23
2023-04-05T02:39:14.270Z,7.90
2023-04-05T02:41:42.036Z,7.40
2023-04-05T02:44:09.705Z,7.50
2023-04-05T02:46:37.451Z,7.47
2023-04-05T02:49:05.297Z,5.53
2023-04-05T02:51:34.411Z,5.07
2023-04-05T02:54:04.588Z,4.80
2023-04-05T02:56:32.328Z,5.23
2023-04-05T02:59:00.062Z,5.40
2023-04-05T03:01:28.276Z,3.70
2023-04-05T03:03:56.199Z,5.20
2023-04-05T03:06:23.906Z,5.43
2023-04-05T03:08:51.599Z,6.30
2023-04-05T03:11:20.849Z,6.73
2023-04-05T03:13:48.624Z,6.27
2023-04-05T03:16:16.299Z,8.53
2023-04-05T03:18:44.009Z,3.83
2023-04-05T03:21:12.141Z,5.67
2023-04-05T03:23:39.925Z,5.80
2023-04-05T03:26:07.629Z,5.90
2023-04-05T03:28:36.717Z,5.70
2023-04-05T03:31:04.452Z,7.00
2023-04-05T03:33:32.177Z,6.23
2023-04-05T03:36:00.891Z,5.20
2023-04-05T03:38:29.295Z,5.80
2023-04-05T03:40:56.982Z,4.13
2023-04-05T03:43:24.717Z,6.40
2023-04-05T03:45:53.998Z,5.07
2023-04-05T03:48:21.771Z,4.63
2023-04-05T03:50:49.595Z,6.37
2023-04-05T03:53:19.053Z,4.37
2023-04-05T03:55:49.491Z,4.77
2023-04-05T03:58:17.730Z,5.80
2023-04-05T04:00:45.522Z,6.27
2023-04-05T04:03:15.104Z,5.13
2023-04-05T04:05:43.446Z,6.07
2023-04-05T04:08:11.504Z,6.63
2023-04-05T04:10:39.173Z,5.77
2023-04-05T04:13:06.890Z,3.87
2023-04-05T04:15:34.605Z,5.83
2023-04-05T04:18:02.397Z,5.43
2023-04-05T04:20:31.475Z,7.70
2023-04-05T04:22:59.371Z,5.63
2023-04-05T04:25:30.671Z,6.03
2023-04-05T04:27:59.050Z,5.63
2023-04-05T04:30:26.983Z,4.40
2023-04-05T04:32:55.347Z,6.03
2023-04-05T04:35:25.765Z,7.30
2023-04-05T04:37:57.871Z,5.57
2023-04-05T04:40:26.868Z,4.97
2023-04-05T04:42:54.732Z,5.73
2023-04-05T04:45:22.497Z,5.53
2023-04-05T04:47:53.490Z,4.93
2023-04-05T04:50:22.048Z,5.67
2023-04-05T04:52:49.951Z,6.57
2023-04-05T04:55:19.020Z,5.77
2023-04-05T04:57:46.793Z,7.13
2023-04-05T05:00:16.575Z,5.73
2023-04-05T05:02:45.000Z,4.40
2023-04-05T05:05:13.095Z,5.20
2023-04-05T05:07:42.708Z,8.23
2023-04-05T05:10:12.106Z,5.20
2023-04-05T05:12:41.173Z,6.27
2023-04-05T05:15:10.071Z,7.63
2023-04-05T05:17:39.338Z,8.10
2023-04-05T05:20:10.356Z,5.47
2023-04-05T05:22:38.530Z,6.53
2023-04-05T05:25:08.674Z,6.90
2023-04-05T05:27:36.700Z,6.10
2023-04-05T05:30:06.789Z,5.87
2023-04-05T05:32:34.765Z,6.67
2023-04-05T05:35:03.051Z,6.63
2023-04-05T05:37:31.602Z,9.17
2023-04-05T05:39:59.637Z,6.23
2023-04-05T05:42:28.185Z,6.77
2023-04-05T05:44:55.881Z,6.33
2023-04-05T05:47:25.318Z,8.67
2023-04-05T05:49:53.257Z,6.03
2023-04-05T05:52:21.966Z,7.63
2023-04-05T05:54:49.662Z,7.73
2023-04-05T05:57:17.484Z,6.67
2023-04-05T05:59:45.528Z,10.90
2023-04-05T06:02:13.524Z,6.33
2023-04-05T06:04:42.833Z,7.80
2023-04-05T06:07:11.135Z,8.03
2023-04-05T06:09:39.030Z,6.43
2023-04-05T06:12:07.206Z,6.47
2023-04-05T06:14:34.897Z,10.90
2023-04-05T06:17:02.564Z,7.97
2023-04-05T06:19:30.298Z,8.37
2023-04-05T06:22:00.774Z,7.53
2023-04-05T06:24:31.758Z,5.97
2023-04-05T06:26:59.551Z,5.90
2023-04-05T06:29:27.291Z,8.50
2023-04-05T06:31:56.288Z,6.97
2023-04-05T06:34:24.117Z,6.37
2023-04-05T06:36:51.897Z,6.73
2023-04-05T06:39:21.021Z,5.87
2023-04-05T06:41:48.808Z,6.33
2023-04-05T06:44:16.515Z,11.97
2023-04-05T06:46:44.248Z,9.33
2023-04-05T06:49:12.150Z,12.63
2023-04-05T06:51:39.829Z,8.83
2023-04-05T06:54:07.568Z,11.20
2023-04-05T06:56:36.824Z,10.93
2023-04-05T06:59:05.095Z,11.57
2023-04-05T07:01:32.984Z,10.77
2023-04-05T07:04:00.922Z,12.50
2023-04-05T07:06:28.708Z,9.43
2023-04-05T07:08:56.570Z,7.47
2023-04-05T07:11:24.329Z,8.63
2023-04-05T07:13:53.480Z,5.43
2023-04-05T07:16:23.627Z,12.33
2023-04-05T07:18:51.923Z,10.07
2023-04-05T07:21:19.778Z,9.23
2023-04-05T07:23:47.597Z,8.23
2023-04-05T07:26:15.318Z,8.57
2023-04-05T07:28:43.021Z,8.10
2023-04-05T07:31:12.094Z,8.60
2023-04-05T07:33:39.895Z,10.10
2023-04-05T07:36:08.465Z,12.40
2023-04-05T07:38:36.185Z,6.97
2023-04-05T07:41:03.895Z,10.00
2023-04-05T07:43:31.601Z,8.53
2023-04-05T07:46:03.129Z,9.63
2023-04-05T07:48:32.595Z,9.83
2023-04-05T07:51:05.582Z,8.53
2023-04-05T07:53:33.522Z,7.47
2023-04-05T07:56:04.780Z,5.07
2023-04-05T07:58:32.529Z,8.97
2023-04-05T08:01:01.852Z,4.87
2023-04-05T08:03:29.994Z,9.23
2023-04-05T08:05:59.534Z,5.47
2023-04-05T08:08:27.311Z,5.03
2023-04-05T08:10:55.621Z,9.87
2023-04-05T08:13:23.427Z,7.73
2023-04-05T08:15:51.252Z,10.83
2023-04-05T08:18:19.243Z,11.13
2023-04-05T08:20:52.169Z,6.67
2023-04-05T08:23:21.584Z,5.60
2023-04-05T08:25:49.423Z,5.77
2023-04-05T08:28:17.449Z,5.80
2023-04-05T08:30:45.992Z,8.33
2023-04-05T08:33:13.927Z,6.43
2023-04-05T08:35:43.020Z,5.20
2023-04-05T08:38:12.231Z,8.47
2023-04-05T08:40:44.012Z,4.13
2023-04-05T08:43:16.649Z,7.00
2023-04-05T08:45:50.645Z,6.33
2023-04-05T08:48:18.567Z,5.07
2023-04-05T08:50:52.596Z,5.73
2023-04-05T08:53:20.632Z,5.07
2023-04-05T08:55:52.018Z,5.10
2023-04-05T08:58:22.100Z,3.83
2023-04-05T09:00:51.888Z,4.17
2023-04-05T09:03:22.912Z,5.30
2023-04-05T09:05:53.295Z,6.23
2023-04-05T09:08:23.014Z,6.40
2023-04-05T09:10:53.000Z,8.33
2023-04-05T09:13:21.146Z,10.43
2023-04-05T09:15:50.038Z,6.67
2023-04-05T09:18:26.069Z,6.73
2023-04-05T09:20:58.179Z,16.73
2023-04-05T09:23:26.219Z,15.70
2023-04-05T09:25:56.662Z,21.40
2023-04-05T09:28:24.486Z,51.97
2023-04-05T09:30:52.276Z,29.57
2023-04-05T09:33:21.172Z,19.30
2023-04-05T09:35:51.707Z,9.90
2023-04-05T09:38:19.754Z,3.40
2023-04-05T09:40:48.863Z,3.10
2023-04-05T09:43:39.962Z,14.37
2023-04-05T09:46:07.964Z,9.53
2023-04-05T09:48:47.525Z,4.40
2023-04-05T09:51:16.344Z,2.33
2023-04-05T09:53:58.500Z,5.40
2023-04-05T09:56:26.494Z,4.00
2023-04-05T09:59:00.342Z,2.70
2023-04-05T10:01:30.091Z,3.73
2023-04-05T10:03:59.946Z,2.23
2023-04-05T10:06:37.362Z,5.23
2023-04-05T10:09:06.276Z,4.77
2023-04-05T10:11:35.175Z,6.50
2023-04-05T10:14:05.363Z,3.23
2023-04-05T10:16:35.555Z,6.10
2023-04-05T10:19:06.747Z,5.33
2023-04-05T10:21:37.162Z,5.60
2023-04-05T10:24:14.506Z,5.27
2023-04-05T10:26:49.876Z,5.03
2023-04-05T10:29:25.030Z,2.97
2023-04-05T10:31:58.149Z,5.50
2023-04-05T10:34:34.669Z,12.87
2023-04-05T10:37:04.244Z,4.53
2023-04-05T10:39:39.043Z,3.63
2023-04-05T10:42:12.374Z,3.17
2023-04-05T10:44:44.474Z,5.80
2023-04-05T10:47:17.321Z,5.80
2023-04-05T10:49:48.292Z,5.17
2023-04-05T10:52:18.521Z,5.87
2023-04-05T10:54:46.920Z,3.70
2023-04-05T10:57:15.125Z,4.83
2023-04-05T10:59:46.624Z,5.27
2023-04-05T11:02:16.030Z,3.93
2023-04-05T11:04:44.076Z,3.63
2023-04-05T11:07:13.711Z,5.30
2023-04-05T11:09:52.459Z,2.53
2023-04-05T11:12:20.241Z,4.50
2023-04-05T11:14:49.308Z,3.77
2023-04-05T11:17:28.065Z,5.77
2023-04-05T11:20:04.135Z,6.00
2023-04-05T11:22:33.029Z,4.17
2023-04-05T11:25:03.119Z,5.57
2023-04-05T11:27:32.447Z,5.23
2023-04-05T11:30:02.774Z,4.07
2023-04-05T11:32:41.164Z,4.27
2023-04-05T11:35:14.123Z,3.60
2023-04-05T11:37:58.826Z,5.63
2023-04-05T11:40:28.856Z,4.40
2023-04-05T11:43:02.066Z,4.03
2023-04-05T11:45:33.213Z,4.27
2023-04-05T11:48:02.445Z,5.77
2023-04-05T11:50:30.768Z,3.63
2023-04-05T11:53:20.042Z,3.50
2023-04-05T11:55:51.168Z,4.27
2023-04-05T11:58:21.270Z,4.03
2023-04-05T12:01:02.740Z,3.20
2023-04-05T12:03:31.279Z,4.97
2023-04-05T12:06:00.396Z,3.90
2023-04-05T12:08:40.330Z,6.20
2023-04-05T12:11:09.802Z,3.77
2023-04-05T12:13:38.181Z,3.73
2023-04-05T12:16:09.274Z,4.17
2023-04-05T12:18:38.631Z,3.27
2023-04-05T12:21:09.656Z,4.13
2023-04-05T12:23:38.423Z,2.70
2023-04-05T12:26:09.043Z,3.20
2023-04-05T12:28:53.031Z,3.50
2023-04-05T12:31:43.444Z,3.67
2023-04-05T12:34:12.820Z,4.00
2023-04-05T12:36:45.395Z,3.57
2023-04-05T12:39:13.181Z,3.70
2023-04-05T12:41:41.064Z,3.23
2023-04-05T12:44:15.761Z,4.47
2023-04-05T12:46:46.380Z,3.30
2023-04-05T12:49:14.472Z,4.50
2023-04-05T12:51:46.353Z,6.43
2023-04-05T12:54:15.220Z,3.10
2023-04-05T12:56:43.072Z,4.30
2023-04-05T12:59:10.902Z,2.93
2023-04-05T13:01:39.349Z,3.63
2023-04-05T13:04:15.971Z,5.13
2023-04-05T13:06:44.652Z,4.77
2023-04-05T13:09:12.480Z,4.23
2023-04-05T13:11:40.345Z,4.07
2023-04-05T13:14:08.492Z,3.37
2023-04-05T13:16:36.343Z,3.53
2023-04-05T13:19:04.177Z,4.23
2023-04-05T13:21:33.720Z,3.97
2023-04-05T13:24:01.658Z,5.43
2023-04-05T13:26:29.865Z,3.20
2023-04-05T13:28:57.684Z,3.83
2023-04-05T13:31:25.575Z,3.73
2023-04-05T13:33:53.380Z,4.20
2023-04-05T13:36:21.235Z,3.33
2023-04-05T13:38:50.802Z,3.57
2023-04-05T13:41:18.555Z,4.27
2023-04-05T13:43:46.312Z,3.67
2023-04-05T13:46:14.073Z,4.87
2023-04-05T13:48:42.059Z,4.97
2023-04-05T13:51:09.894Z,4.73
2023-04-05T13:53:37.743Z,3.87
2023-04-05T13:56:07.234Z,5.43
2023-04-05T13:58:35.034Z,4.23
2023-04-05T14:01:04.087Z,5.17
2023-04-05T14:03:31.995Z,4.07
2023-04-05T14:05:59.863Z,7.53
2023-04-05T14:08:27.755Z,3.47
2023-04-05T14:10:55.616Z,3.83
2023-04-05T14:13:25.017Z,3.90
2023-04-05T14:15:53.651Z,3.97
2023-04-05T14:18:21.552Z,3.63
2023-04-05T14:20:52.745Z,3.87
2023-04-05T14:23:20.773Z,3.23
2023-04-05T14:25:48.572Z,3.27
2023-04-05T14:28:16.506Z,3.27
2023-04-05T14:30:45.789Z,5.53
2023-04-05T14:33:14.846Z,4.10
2023-04-05T14:35:42.963Z,4.87
2023-04-05T14:38:12.212Z,6.10
2023-04-05T14:40:41.875Z,5.60
2023-04-05T14:43:10.100Z,5.27
2023-04-05T14:45:38.101Z,4.50
2023-04-05T14:48:07.867Z,4.70
2023-04-05T14:50:35.916Z,3.47
2023-04-05T14:53:03.940Z,3.33
2023-04-05T14:55:31.825Z,3.60
2023-04-05T14:57:59.700Z,5.30
2023-04-05T15:00:27.537Z,4.73
2023-04-05T15:02:55.957Z,3.13
2023-04-05T15:05:25.790Z,4.43
2023-04-05T15:07:53.697Z,4.67
2023-04-05T15:10:21.644Z,3.90
2023-04-05T15:12:50.263Z,4.27
2023-04-05T15:15:18.536Z,4.13
2023-04-05T15:17:46.484Z,3.73
2023-04-05T15:20:14.414Z,5.50
2023-04-05T15:22:43.885Z,4.53
2023-04-05T15:25:12.560Z,3.60
2023-04-05T15:27:40.401Z,3.67
2023-04-05T15:30:09.496Z,3.47
2023-04-05T15:32:37.945Z,3.27
2023-04-05T15:35:06.603Z,4.70
2023-04-05T15:37:35.042Z,4.57
2023-04-05T15:40:04.475Z,4.50
2023-04-05T15:42:32.355Z,7.13
2023-04-05T15:45:00.220Z,6.63
2023-04-05T15:47:29.117Z,4.93
2023-04-05T15:49:57.026Z,3.80
2023-04-05T15:52:24.952Z,4.83
2023-04-05T15:54:52.868Z,3.90
2023-04-05T15:57:22.187Z,3.67
2023-04-05T15:59:50.194Z,3.97
2023-04-05T16:02:18.104Z,4.67
2023-04-05T16:04:46.040Z,4.60
2023-04-05T16:07:13.875Z,3.70
2023-04-05T16:09:41.822Z,3.53
2023-04-05T16:12:09.698Z,3.80
2023-04-05T16:14:39.193Z,3.70
2023-04-05T16:17:07.133Z,3.97
2023-04-05T16:19:35.360Z,4.20
2023-04-05T16:22:03.673Z,5.00
2023-04-05T16:24:33.185Z,3.43
2023-04-05T16:27:01.065Z,3.53
2023-04-05T16:29:28.903Z,4.03
2023-04-05T16:31:58.205Z,5.20
2023-04-05T16:34:26.284Z,3.93
2023-04-05T16:36:54.235Z,5.93
2023-04-05T16:39:22.258Z,3.70
2023-04-05T16:41:50.158Z,4.37
2023-04-05T16:44:18.027Z,4.77
2023-04-05T16:46:47.174Z,4.23
2023-04-05T16:49:16.862Z,5.70
2023-04-05T16:51:44.839Z,5.53
2023-04-05T16:54:12.717Z,5.13
2023-04-05T16:56:41.435Z,5.47
2023-04-05T16:59:09.760Z,4.40
2023-04-05T17:01:38.076Z,4.40
2023-04-05T17:04:06.165Z,4.50
2023-04-05T17:06:35.649Z,5.13
2023-04-05T17:09:04.512Z,4.50
2023-04-05T17:11:32.812Z,5.70
2023-04-05T17:14:00.936Z,4.90
2023-04-05T17:16:28.958Z,8.00
2023-04-05T17:18:56.897Z,4.47
2023-04-05T17:21:25.797Z,5.10
2023-04-05T17:23:55.130Z,5.43
2023-04-05T17:26:24.304Z,4.53
2023-04-05T17:28:52.128Z,6.63
2023-04-05T17:31:20.350Z,7.23
2023-04-05T17:33:48.820Z,6.40
2023-04-05T17:36:17.335Z,6.93
2023-04-05T17:38:45.661Z,8.60
2023-04-05T17:41:14.966Z,6.33
2023-04-05T17:43:42.817Z,6.30
2023-04-05T17:46:13.718Z,7.50
2023-04-05T17:48:41.901Z,9.40
2023-04-05T17:51:10.203Z,5.30
2023-04-05T17:53:38.564Z,4.93
2023-04-05T17:56:06.712Z,6.37
2023-04-05T17:58:36.251Z,6.63
2023-04-05T18:01:04.224Z,8.57
2023-04-05T18:03:32.135Z,8.27
2023-04-05T18:05:59.990Z,6.33
2023-04-05T18:08:28.905Z,7.13
2023-04-05T18:10:57.921Z,8.87
2023-04-05T18:13:26.321Z,7.63
2023-04-05T18:15:56.246Z,10.37
2023-04-05T18:18:24.722Z,8.50
2023-04-05T18:20:53.928Z,8.73
2023-04-05T18:23:24.734Z,6.77
2023-04-05T18:25:54.059Z,7.03
2023-04-05T18:28:23.684Z,8.57
2023-04-05T18:30:51.902Z,9.07
2023-04-05T18:33:22.469Z,6.60
2023-04-05T18:35:50.860Z,7.50
2023-04-05T18:38:19.050Z,5.67
2023-04-05T18:40:47.098Z,5.63
2023-04-05T18:43:15.211Z,6.40
2023-04-05T18:45:44.200Z,6.90
2023-04-05T18:48:12.431Z,6.03
2023-04-05T18:50:41.708Z,6.97
2023-04-05T18:53:09.766Z,11.03
2023-04-05T18:55:37.906Z,7.93
2023-04-05T18:58:05.830Z,10.27
2023-04-05T19:00:34.917Z,10.80
2023-04-05T19:03:02.872Z,12.63
2023-04-05T19:05:30.736Z,10.50
2023-04-05T19:07:59.975Z,9.87
2023-04-05T19:10:27.902Z,9.60
2023-04-05T19:12:55.680Z,10.23
2023-04-05T19:15:23.497Z,9.70
2023-04-05T19:17:51.306Z,9.00
2023-04-05T19:20:19.255Z,8.40
2023-04-05T19:22:47.054Z,8.30
2023-04-05T19:25:16.400Z,7.87
2023-04-05T19:27:44.275Z,7.60
2023-04-05T19:30:12.729Z,10.03
2023-04-05T19:32:40.560Z,6.33
2023-04-05T19:35:10.042Z,9.23
2023-04-05T19:37:37.874Z,8.93
2023-04-05T19:40:06.588Z,8.33
2023-04-05T19:42:36.012Z,6.17
2023-04-05T19:45:03.975Z,14.60
2023-04-05T19:47:31.917Z,5.80
2023-04-05T19:50:00.586Z,7.47
2023-04-05T19:52:41.301Z,7.50
2023-04-05T19:55:28.296Z,7.73
2023-04-05T19:57:58.540Z,6.93
2023-04-05T20:00:35.825Z,13.17
2023-04-05T20:03:04.151Z,7.50
2023-04-05T20:05:59.241Z,9.73
2023-04-05T20:08:27.097Z,5.20
2023-04-05T20:10:55.237Z,7.50
2023-04-05T20:13:24.461Z,8.33
2023-04-05T20:15:52.729Z,7.20
2023-04-05T20:18:23.736Z,6.53
2023-04-05T20:20:54.095Z,6.63
2023-04-05T20:23:23.234Z,5.97
2023-04-05T20:25:52.104Z,6.10
2023-04-05T20:28:34.122Z,7.87
2023-04-05T20:31:02.125Z,8.57
2023-04-05T20:33:43.271Z,9.73
2023-04-05T20:36:12.183Z,8.43
2023-04-05T20:38:41.013Z,9.63
2023-04-05T20:41:09.509Z,9.43
2023-04-05T20:43:39.722Z,11.47
2023-04-05T20:46:08.264Z,9.77
2023-04-05T20:48:37.599Z,8.67
2023-04-05T20:51:07.910Z,10.70
2023-04-05T20:53:36.363Z,13.27
2023-04-05T20:56:05.426Z,8.50
2023-04-05T20:58:33.711Z,10.07
2023-04-05T21:01:03.896Z,9.73
2023-04-05T21:03:32.941Z,8.87
2023-04-05T21:06:01.926Z,12.03
2023-04-05T21:08:31.155Z,10.03
2023-04-05T21:10:59.254Z,8.33
2023-04-05T21:13:27.258Z,10.73
2023-04-05T21:15:55.892Z,7.97
2023-04-05T21:18:25.780Z,9.03
2023-04-05T21:20:55.029Z,11.87
2023-04-05T21:23:26.132Z,8.30
2023-04-05T21:25:54.469Z,9.10
2023-04-05T21:28:22.432Z,10.10
2023-04-05T21:30:50.272Z,9.30
2023-04-05T21:33:18.783Z,8.10
2023-04-05T21:35:48.068Z,8.70
2023-04-05T21:38:16.078Z,9.57
2023-04-05T21:40:44.740Z,10.43
2023-04-05T21:43:12.859Z,10.37
2023-04-05T21:45:40.794Z,8.80
2023-04-05T21:48:08.853Z,12.13
2023-04-05T21:50:37.253Z,9.67
2023-04-05T21:53:07.421Z,8.80
2023-04-05T21:55:35.272Z,9.63
2023-04-05T21:58:03.101Z,10.30
2023-04-05T22:00:31.133Z,9.60
2023-04-05T22:02:59.079Z,8.60
2023-04-05T22:05:37.359Z,10.63
2023-04-05T22:08:08.320Z,12.47
2023-04-05T22:10:37.522Z,9.67
2023-04-05T22:13:05.445Z,11.13
2023-04-05T22:15:33.252Z,10.83
2023-04-05T22:18:01.126Z,10.27
2023-04-05T22:20:29.029Z,9.27
2023-04-05T22:22:56.997Z,9.97
2023-04-05T22:25:26.958Z,11.33
2023-04-05T22:27:59.510Z,12.20
2023-04-05T22:30:28.236Z,13.73
2023-04-05T22:32:56.527Z,10.10
2023-04-05T22:35:24.410Z,11.70
2023-04-05T22:37:52.299Z,10.23
2023-04-05T22:40:26.163Z,14.77
2023-04-05T22:42:55.344Z,10.07
2023-04-05T22:45:23.537Z,10.57
2023-04-05T22:47:51.501Z,10.77
2023-04-05T22:50:19.513Z,11.87
2023-04-05T22:52:47.378Z,11.93
2023-04-05T22:55:15.587Z,10.47
2023-04-05T22:57:43.388Z,10.90
2023-04-05T23:00:14.118Z,11.03
2023-04-05T23:02:42.040Z,12.13
2023-04-05T23:05:10.959Z,11.33
2023-04-05T23:07:38.793Z,11.97
2023-04-05T23:10:07.264Z,10.53
2023-04-05T23:12:35.532Z,10.90
2023-04-05T23:15:03.362Z,11.00
2023-04-05T23:17:32.746Z,11.53
2023-04-05T23:20:00.798Z,11.10
2023-04-05T23:22:28.643Z,11.17
2023-04-05T23:24:56.459Z,11.23
2023-04-05T23:27:24.317Z,12.53
2023-04-05T23:29:52.164Z,11.57
2023-04-05T23:32:19.965Z,13.23
2023-04-05T23:34:49.725Z,11.37
2023-04-05T23:37:17.645Z,12.23
2023-04-05T23:39:45.556Z,11.20
2023-04-05T23:42:14.529Z,10.87
2023-04-05T23:44:42.320Z,12.30
2023-04-05T23:47:10.228Z,10.60
2023-04-05T23:49:38.013Z,11.50
2023-04-05T23:52:07.171Z,11.40
2023-04-05T23:54:35.009Z,10.97
2023-04-05T23:57:02.846Z,10.77
2023-04-05T23:59:30.810Z,11.20
